createdAt,value
2023-04-03T00:01:42.690Z,89.84
2023-04-03T00:04:12.247Z,90.49
2023-04-03T00:06:41.618Z,89.88
2023-04-03T00:09:10.906Z,89.77
2023-04-03T00:11:40.660Z,90.21
2023-04-03T00:14:09.958Z,90.09
2023-04-03T00:16:39.468Z,90.58
2023-04-03T00:19:08.852Z,90.66
2023-04-03T00:21:38.125Z,90.21
2023-04-03T00:24:07.902Z,89.65
2023-04-03T00:26:37.169Z,90.00
2023-04-03T00:29:06.426Z,90.49
2023-04-03T00:31:35.684Z,90.57
2023-04-03T00:34:04.987Z,90.96
2023-04-03T00:36:34.368Z,91.34
2023-04-03T00:39:04.032Z,91.30
2023-04-03T00:41:33.781Z,91.81
2023-04-03T00:44:03.070Z,90.97
2023-04-03T00:46:32.331Z,90.64
2023-04-03T00:49:01.751Z,90.87
2023-04-03T00:51:31.304Z,91.48
2023-04-03T00:54:05.297Z,91.41
2023-04-03T00:56:34.937Z,91.11
2023-04-03T00:59:16.051Z,91.75
2023-04-03T01:01:45.772Z,90.90
2023-04-03T01:04:40.463Z,91.19
2023-04-03T01:07:12.759Z,90.98
2023-04-03T01:09:42.780Z,90.92
2023-04-03T01:12:30.346Z,90.66
2023-04-03T01:15:02.106Z,91.01
2023-04-03T01:17:37.130Z,91.11
2023-04-03T01:20:40.946Z,90.67
2023-04-03T01:23:16.774Z,90.15
2023-04-03T01:25:49.097Z,90.88
2023-04-03T01:28:22.324Z,89.79
2023-04-03T01:30:57.303Z,89.75
2023-04-03T01:33:27.246Z,90.06
2023-04-03T01:35:56.771Z,89.73
2023-04-03T01:38:26.839Z,90.43
2023-04-03T01:40:56.094Z,90.40
2023-04-03T01:43:26.185Z,90.75
2023-04-03T01:45:55.912Z,91.33
2023-04-03T01:48:25.974Z,91.25
2023-04-03T01:50:56.462Z,91.60
2023-04-03T01:53:25.936Z,93.58
2023-04-03T01:55:55.611Z,92.86
2023-04-03T01:58:26.048Z,92.39
2023-04-03T02:00:55.808Z,92.17
2023-04-03T02:03:25.295Z,91.91
2023-04-03T02:05:54.834Z,92.23
2023-04-03T02:08:24.485Z,92.17
2023-04-03T02:10:53.810Z,91.98
2023-04-03T02:13:23.436Z,92.60
2023-04-03T02:15:52.741Z,92.71
2023-04-03T02:18:22.344Z,92.57
2023-04-03T02:20:51.803Z,93.54
2023-04-03T02:23:21.192Z,93.82
2023-04-03T02:25:50.449Z,93.87
2023-04-03T02:28:19.889Z,93.80
2023-04-03T02:30:49.185Z,94.16
2023-04-03T02:33:18.850Z,94.87
2023-04-03T02:35:50.024Z,94.49
2023-04-03T02:38:19.444Z,94.28
2023-04-03T02:40:48.989Z,94.59
2023-04-03T02:43:18.639Z,94.86
2023-04-03T02:45:48.372Z,94.84
2023-04-03T02:48:18.272Z,94.83
2023-04-03T02:50:47.542Z,95.50
2023-04-03T02:53:16.953Z,94.91
2023-04-03T02:55:46.926Z,94.37
2023-04-03T02:58:16.258Z,94.12
2023-04-03T03:00:45.893Z,93.91
2023-04-03T03:03:15.926Z,94.00
2023-04-03T03:05:45.634Z,94.55
2023-04-03T03:08:14.889Z,94.60
2023-04-03T03:10:44.282Z,95.23
2023-04-03T03:13:13.736Z,94.84
2023-04-03T03:15:43.451Z,95.01
2023-04-03T03:18:13.179Z,94.80
2023-04-03T03:20:42.806Z,94.53
2023-04-03T03:23:12.336Z,94.68
2023-04-03T03:25:44.393Z,94.76
2023-04-03T03:28:13.889Z,95.58
2023-04-03T03:30:43.553Z,95.25
2023-04-03T03:33:12.892Z,95.08
2023-04-03T03:35:42.848Z,95.30
2023-04-03T03:38:12.728Z,95.15
2023-04-03T03:40:42.342Z,94.81
2023-04-03T03:43:11.925Z,94.53
2023-04-03T03:45:41.378Z,94.47
2023-04-03T03:48:10.685Z,94.24
2023-04-03T03:50:40.028Z,94.75
2023-04-03T03:53:09.426Z,94.25
2023-04-03T03:55:39.424Z,93.98
2023-04-03T03:58:09.071Z,94.61
2023-04-03T04:00:38.825Z,94.56
2023-04-03T04:03:08.471Z,93.95
2023-04-03T04:05:38.285Z,94.16
2023-04-03T04:08:07.890Z,94.43
2023-04-03T04:10:38.098Z,94.44
2023-04-03T04:13:08.096Z,94.47
2023-04-03T04:15:37.842Z,94.54
2023-04-03T04:18:08.088Z,94.43
2023-04-03T04:20:38.430Z,94.56
2023-04-03T04:23:08.163Z,94.55
2023-04-03T04:25:38.580Z,94.84
2023-04-03T04:28:08.843Z,94.40
2023-04-03T04:30:38.418Z,94.59
2023-04-03T04:33:08.468Z,94.57
2023-04-03T04:35:38.716Z,95.06
2023-04-03T04:38:09.737Z,94.77
2023-04-03T04:40:39.792Z,94.78
2023-04-03T04:43:09.486Z,94.04
2023-04-03T04:45:39.312Z,93.96
2023-04-03T04:48:09.362Z,94.05
2023-04-03T04:50:39.062Z,94.41
2023-04-03T04:53:09.465Z,94.91
2023-04-03T04:55:39.226Z,94.95
2023-04-03T04:58:09.135Z,95.21
2023-04-03T05:00:38.337Z,95.16
2023-04-03T05:03:08.940Z,95.21
2023-04-03T05:05:38.998Z,95.20
2023-04-03T05:08:09.983Z,95.00
2023-04-03T05:10:42.438Z,94.84
2023-04-03T05:13:12.493Z,94.94
2023-04-03T05:15:42.000Z,95.37
2023-04-03T05:18:11.638Z,94.91
2023-04-03T05:20:41.723Z,94.82
2023-04-03T05:23:12.659Z,95.22
2023-04-03T05:25:44.297Z,95.56
2023-04-03T05:28:15.051Z,94.99
2023-04-03T05:30:44.480Z,95.39
2023-04-03T05:33:15.480Z,95.23
2023-04-03T05:35:49.480Z,95.06
2023-04-03T05:38:21.477Z,94.99
2023-04-03T05:40:51.078Z,94.77
2023-04-03T05:43:20.532Z,94.31
2023-04-03T05:45:52.181Z,94.27
2023-04-03T05:48:22.088Z,94.20
2023-04-03T05:50:51.847Z,93.79
2023-04-03T05:53:28.986Z,94.18
2023-04-03T05:56:00.783Z,93.17
2023-04-03T05:58:31.482Z,91.89
2023-04-03T06:01:01.707Z,88.70
2023-04-03T06:03:31.585Z,84.06
2023-04-03T06:06:01.357Z,81.03
2023-04-03T06:08:30.872Z,75.73
2023-04-03T06:11:00.875Z,74.24
2023-04-03T06:13:30.532Z,71.80
2023-04-03T06:15:59.972Z,70.89
2023-04-03T06:18:29.568Z,71.58
2023-04-03T06:20:59.500Z,72.69
2023-04-03T06:23:29.274Z,73.55
2023-04-03T06:25:59.373Z,77.13
2023-04-03T06:28:28.945Z,79.65
2023-04-03T06:30:58.269Z,81.14
2023-04-03T06:33:27.951Z,82.72
2023-04-03T06:36:01.499Z,81.90
2023-04-03T06:38:31.143Z,82.41
2023-04-03T06:41:01.183Z,81.31
2023-04-03T06:43:34.335Z,76.98
2023-04-03T06:46:03.514Z,76.01
2023-04-03T06:48:33.238Z,77.97
2023-04-03T06:51:02.507Z,78.13
2023-04-03T06:53:32.485Z,77.41
2023-04-03T06:56:01.759Z,77.11
2023-04-03T06:58:31.797Z,77.45
2023-04-03T07:01:01.101Z,77.33
2023-04-03T07:03:30.498Z,76.63
2023-04-03T07:05:59.833Z,77.03
2023-04-03T07:08:29.911Z,74.76
2023-04-03T07:10:59.441Z,74.49
2023-04-03T07:13:29.753Z,72.96
2023-04-03T07:15:59.343Z,73.95
2023-04-03T07:18:28.807Z,70.93
2023-04-03T07:20:58.065Z,72.60
2023-04-03T07:23:27.779Z,70.59
2023-04-03T07:25:57.372Z,70.59
2023-04-03T07:28:27.035Z,69.50
2023-04-03T07:30:59.822Z,70.03
2023-04-03T07:33:29.799Z,72.80
2023-04-03T07:35:59.461Z,70.71
2023-04-03T07:38:28.924Z,71.68
2023-04-03T07:40:58.537Z,72.21
2023-04-03T07:43:27.844Z,72.28
2023-04-03T07:45:57.300Z,73.16
2023-04-03T07:48:27.533Z,73.28
2023-04-03T07:51:02.904Z,73.09
2023-04-03T07:53:32.407Z,70.85
2023-04-03T07:56:03.896Z,71.40
2023-04-03T07:58:33.266Z,69.00
2023-04-03T08:01:02.733Z,67.23
2023-04-03T08:03:32.384Z,67.50
2023-04-03T08:06:15.265Z,66.63
2023-04-03T08:08:40.494Z,66.06
2023-04-03T08:11:09.998Z,66.91
2023-04-03T08:13:39.247Z,67.35
2023-04-03T08:16:14.481Z,67.31
2023-04-03T08:18:43.886Z,66.37
2023-04-03T08:21:14.114Z,66.85
2023-04-03T08:23:43.826Z,67.11
2023-04-03T08:26:15.440Z,67.24
2023-04-03T08:28:44.761Z,68.43
2023-04-03T08:31:16.888Z,66.77
2023-04-03T08:33:46.649Z,67.27
2023-04-03T08:36:25.150Z,66.84
2023-04-03T08:38:55.627Z,64.78
2023-04-03T08:41:43.609Z,66.37
2023-04-03T08:44:41.919Z,64.60
2023-04-03T08:47:29.369Z,64.12
2023-04-03T08:50:04.104Z,65.90
2023-04-03T08:52:44.340Z,66.41
2023-04-03T08:55:26.417Z,64.50
2023-04-03T08:58:10.874Z,64.76
2023-04-03T09:00:52.148Z,61.93
2023-04-03T09:03:23.705Z,59.04
2023-04-03T09:06:07.472Z,57.38
2023-04-03T09:08:51.881Z,55.46
2023-04-03T09:11:39.243Z,55.58
2023-04-03T09:14:14.864Z,54.07
2023-04-03T09:17:01.715Z,52.54
2023-04-03T09:19:37.285Z,51.95
2023-04-03T09:22:24.815Z,52.24
2023-04-03T09:25:02.109Z,50.10
2023-04-03T09:27:31.745Z,47.03
2023-04-03T09:30:01.381Z,44.81
2023-04-03T09:32:32.765Z,43.98
2023-04-03T09:35:19.020Z,43.91
2023-04-03T09:37:42.506Z,41.86
2023-04-03T09:40:36.339Z,44.66
2023-04-03T09:43:24.145Z,42.64
2023-04-03T09:45:54.025Z,41.16
2023-04-03T09:48:26.525Z,41.67
2023-04-03T09:51:02.744Z,41.67
2023-04-03T09:53:38.122Z,40.61
2023-04-03T09:56:21.226Z,37.82
2023-04-03T09:58:53.758Z,39.30
2023-04-03T10:01:29.566Z,38.23
2023-04-03T10:04:16.674Z,36.09
2023-04-03T10:06:48.983Z,40.04
2023-04-03T10:09:34.899Z,38.89
2023-04-03T10:12:11.225Z,38.86
2023-04-03T10:14:58.472Z,36.83
2023-04-03T10:17:56.428Z,35.85
2023-04-03T10:20:41.627Z,37.43
2023-04-03T10:23:25.809Z,39.11
2023-04-03T10:26:14.712Z,35.79
2023-04-03T10:29:05.568Z,37.24
2023-04-03T10:31:41.612Z,34.76
2023-04-03T10:34:25.515Z,35.28
2023-04-03T10:37:29.703Z,33.53
2023-04-03T10:40:17.238Z,34.53
2023-04-03T10:43:08.593Z,33.67
2023-04-03T10:45:53.220Z,36.55
2023-04-03T10:48:44.903Z,34.77
2023-04-03T10:51:37.514Z,34.89
2023-04-03T11:19:46.459Z,31.88
2023-04-03T11:22:34.039Z,29.61
2023-04-03T11:25:16.494Z,31.16
2023-04-03T11:28:03.686Z,30.49
2023-04-03T11:30:51.893Z,29.88
2023-04-03T11:33:24.104Z,30.40
2023-04-03T11:35:56.674Z,32.73
2023-04-03T11:38:30.325Z,31.26
2023-04-03T11:41:01.159Z,30.34
2023-04-03T11:43:32.342Z,31.75
2023-04-03T11:46:06.544Z,31.37
2023-04-03T11:48:44.617Z,30.57
2023-04-03T11:51:32.234Z,31.82
2023-04-03T11:54:13.523Z,27.04
2023-04-03T11:56:42.877Z,29.77
2023-04-03T11:59:20.816Z,29.40
2023-04-03T12:01:59.028Z,30.17
2023-04-03T12:04:31.619Z,30.09
2023-04-03T12:07:05.577Z,30.75
2023-04-03T12:09:38.705Z,29.68
2023-04-03T12:12:34.703Z,27.68
2023-04-03T12:15:25.811Z,29.91
2023-04-03T12:17:55.555Z,31.27
2023-04-03T12:20:54.414Z,30.16
2023-04-03T12:23:30.202Z,35.97
2023-04-03T12:26:05.707Z,31.17
2023-04-03T12:28:41.948Z,31.60
2023-04-03T12:31:13.094Z,29.87
2023-04-03T12:34:10.455Z,31.78
2023-04-03T12:37:06.120Z,31.59
2023-04-03T12:40:04.978Z,30.28
2023-04-03T12:42:55.322Z,32.50
2023-04-03T12:45:26.831Z,30.84
2023-04-03T12:47:57.905Z,30.89
2023-04-03T12:50:34.205Z,32.01
2023-04-03T12:53:14.606Z,33.63
2023-04-03T12:55:44.170Z,32.58
2023-04-03T12:58:19.562Z,31.61
2023-04-03T13:00:49.049Z,32.67
2023-04-03T13:03:27.797Z,31.35
2023-04-03T13:06:01.308Z,30.98
2023-04-03T13:08:31.636Z,31.08
2023-04-03T13:11:10.152Z,33.54
2023-04-03T13:13:40.405Z,33.62
2023-04-03T13:16:15.473Z,33.16
2023-04-03T13:18:45.390Z,32.07
2023-04-03T13:21:20.974Z,31.75
2023-04-03T13:23:57.566Z,31.34
2023-04-03T13:26:27.219Z,34.52
2023-04-03T13:28:59.711Z,33.58
2023-04-03T13:31:29.806Z,34.27
2023-04-03T13:34:11.916Z,33.04
2023-04-03T13:37:01.723Z,35.36
2023-04-03T13:39:34.550Z,35.07
2023-04-03T13:42:25.030Z,34.44
2023-04-03T13:45:14.606Z,33.28
2023-04-03T13:47:46.855Z,34.68
2023-04-03T13:50:23.632Z,33.83
2023-04-03T13:52:55.629Z,34.39
2023-04-03T13:55:28.513Z,35.16
2023-04-03T13:58:04.070Z,33.97
2023-04-03T14:00:42.771Z,34.85
2023-04-03T14:03:21.387Z,34.31
2023-04-03T14:05:51.517Z,34.97
2023-04-03T14:08:26.699Z,34.38
2023-04-03T14:10:52.932Z,34.74
2023-04-03T14:13:22.561Z,34.22
2023-04-03T14:15:52.409Z,35.17
2023-04-03T14:18:23.009Z,35.13
2023-04-03T14:20:52.341Z,34.73
2023-04-03T14:23:21.909Z,33.38
2023-04-03T14:25:51.380Z,34.85
2023-04-03T14:28:23.432Z,36.56
2023-04-03T14:30:53.761Z,35.47
2023-04-03T14:33:24.879Z,35.29
2023-04-03T14:35:56.393Z,36.23
2023-04-03T14:38:31.209Z,35.59
2023-04-03T14:41:13.560Z,33.93
2023-04-03T14:43:31.842Z,33.72
2023-04-03T14:46:01.421Z,35.66
2023-04-03T14:48:32.204Z,35.54
2023-04-03T14:51:05.813Z,36.79
2023-04-03T14:53:38.677Z,34.93
2023-04-03T14:56:06.330Z,37.39
2023-04-03T14:58:37.465Z,35.08
2023-04-03T15:01:07.475Z,38.66
2023-04-03T15:03:36.989Z,37.70
2023-04-03T15:06:06.715Z,38.24
2023-04-03T15:08:36.618Z,36.72
2023-04-03T15:11:06.105Z,34.64
2023-04-03T15:13:35.821Z,35.11
2023-04-03T15:16:06.045Z,35.92
2023-04-03T15:18:38.253Z,36.82
2023-04-03T15:21:08.040Z,37.54
2023-04-03T15:23:37.381Z,37.95
2023-04-03T15:26:07.448Z,34.61
2023-04-03T15:28:39.367Z,35.25
2023-04-03T15:31:10.012Z,34.31
2023-04-03T15:33:39.501Z,34.79
2023-04-03T15:36:29.249Z,35.09
2023-04-03T15:38:40.542Z,34.52
2023-04-03T15:41:09.977Z,36.44
2023-04-03T15:43:39.621Z,36.74
2023-04-03T15:46:09.405Z,36.10
2023-04-03T15:48:39.256Z,36.42
2023-04-03T15:51:08.947Z,37.90
2023-04-03T15:53:38.207Z,36.90
2023-04-03T15:56:09.190Z,37.25
2023-04-03T15:58:38.529Z,37.66
2023-04-03T16:01:08.214Z,37.48
2023-04-03T16:03:39.264Z,38.63
2023-04-03T16:06:08.649Z,38.61
2023-04-03T16:08:39.177Z,38.45
2023-04-03T16:11:09.158Z,38.45
2023-04-03T16:13:38.409Z,38.72
2023-04-03T16:16:08.544Z,37.58
2023-04-03T16:18:38.196Z,38.70
2023-04-03T16:21:09.067Z,38.69
2023-04-03T16:23:38.752Z,39.90
2023-04-03T16:26:08.091Z,40.50
2023-04-03T16:28:37.428Z,40.62
2023-04-03T16:31:08.086Z,40.29
2023-04-03T16:33:37.652Z,41.01
2023-04-03T16:36:07.520Z,40.33
2023-04-03T16:38:37.288Z,40.46
2023-04-03T16:41:06.946Z,40.70
2023-04-03T16:43:37.750Z,40.43
2023-04-03T16:46:07.051Z,42.59
2023-04-03T16:48:36.675Z,43.04
2023-04-03T16:51:06.177Z,43.63
2023-04-03T16:53:36.719Z,45.25
2023-04-03T16:56:06.238Z,45.98
2023-04-03T16:58:36.236Z,45.05
2023-04-03T17:01:13.395Z,46.32
2023-04-03T17:03:42.869Z,46.52
2023-04-03T17:06:17.433Z,47.06
2023-04-03T17:08:48.679Z,45.97
2023-04-03T17:11:21.349Z,47.17
2023-04-03T17:13:50.584Z,46.33
2023-04-03T17:16:20.111Z,45.68
2023-04-03T17:18:49.717Z,47.00
2023-04-03T17:21:19.317Z,47.93
2023-04-03T17:23:52.157Z,47.46
2023-04-03T17:26:22.268Z,47.99
2023-04-03T17:28:52.170Z,49.13
2023-04-03T17:31:21.749Z,49.82
2023-04-03T17:33:57.707Z,49.38
2023-04-03T17:36:31.402Z,49.96
2023-04-03T17:39:01.315Z,50.15
2023-04-03T17:41:31.124Z,50.68
2023-04-03T17:44:00.648Z,51.65
2023-04-03T17:46:31.891Z,51.96
2023-04-03T17:49:02.299Z,53.36
2023-04-03T17:51:33.861Z,52.41
2023-04-03T17:54:04.232Z,52.29
2023-04-03T17:56:33.737Z,52.82
2023-04-03T17:59:03.210Z,52.66
2023-04-03T18:01:36.156Z,53.56
2023-04-03T18:04:06.869Z,52.75
2023-04-03T18:06:44.739Z,53.31
2023-04-03T18:09:16.680Z,53.12
2023-04-03T18:11:47.743Z,55.15
2023-04-03T18:14:20.612Z,55.96
2023-04-03T18:16:50.742Z,55.55
2023-04-03T18:19:23.572Z,56.61
2023-04-03T18:45:25.112Z,58.92
2023-04-03T18:47:54.679Z,58.99
2023-04-03T18:50:24.452Z,59.47
2023-04-03T18:52:54.151Z,59.44
2023-04-03T18:55:23.552Z,61.43
2023-04-03T18:57:53.161Z,60.38
2023-04-03T19:00:22.460Z,60.36
2023-04-03T19:02:52.119Z,61.62
2023-04-03T19:05:22.236Z,61.24
2023-04-03T19:07:52.065Z,61.68
2023-04-03T19:10:22.142Z,62.28
2023-04-03T19:12:52.425Z,62.28
2023-04-03T19:15:24.702Z,62.47
2023-04-03T19:17:54.311Z,62.42
2023-04-03T19:20:23.884Z,62.67
2023-04-03T19:22:54.806Z,62.93
2023-04-03T19:25:24.430Z,62.90
2023-04-03T19:27:53.829Z,63.67
2023-04-03T19:30:24.724Z,62.91
2023-04-03T19:32:54.197Z,62.79
2023-04-03T19:35:23.681Z,62.97
2023-04-03T19:37:53.545Z,63.22
2023-04-03T19:40:23.240Z,61.87
2023-04-03T19:42:53.174Z,63.60
2023-04-03T19:45:23.019Z,63.27
2023-04-03T19:47:52.781Z,63.13
2023-04-03T19:50:22.463Z,64.51
2023-04-03T19:52:51.821Z,63.93
2023-04-03T19:55:21.247Z,64.70
2023-04-03T19:57:50.779Z,64.59
2023-04-03T20:00:21.049Z,64.52
2023-04-03T20:02:50.895Z,65.81
2023-04-03T20:05:20.264Z,65.10
2023-04-03T20:07:49.955Z,66.41
2023-04-03T20:10:19.848Z,66.34
2023-04-03T20:12:50.375Z,66.00
2023-04-03T20:15:19.971Z,66.97
2023-04-03T20:17:49.810Z,66.32
2023-04-03T20:20:19.701Z,66.66
2023-04-03T20:22:49.053Z,67.10
2023-04-03T20:25:33.209Z,67.57
2023-04-03T20:27:49.601Z,67.50
2023-04-03T20:30:18.953Z,67.12
2023-04-03T20:32:48.446Z,67.06
2023-04-03T20:35:19.680Z,67.56
2023-04-03T20:37:49.025Z,69.54
2023-04-03T20:40:18.772Z,68.51
2023-04-03T20:42:48.442Z,67.72
2023-04-03T20:45:18.071Z,68.50
2023-04-03T20:47:47.877Z,67.44
2023-04-03T20:50:17.710Z,68.12
2023-04-03T20:52:47.539Z,67.83
2023-04-03T20:55:18.575Z,68.68
2023-04-03T20:57:54.296Z,69.09
2023-04-03T21:00:19.706Z,69.33
2023-04-03T21:02:49.024Z,69.14
2023-04-03T21:05:20.629Z,69.30
2023-04-03T21:08:26.426Z,70.32
2023-04-03T21:11:34.075Z,70.99
2023-04-03T21:14:39.666Z,70.75
2023-04-03T21:17:07.997Z,71.46
2023-04-03T21:19:39.053Z,71.08
2023-04-03T21:22:08.513Z,70.40
2023-04-03T21:24:38.699Z,70.96
2023-04-03T21:27:08.379Z,71.76
2023-04-03T21:29:37.667Z,71.40
2023-04-03T21:32:07.860Z,72.49
2023-04-03T21:34:37.098Z,73.22
2023-04-03T21:37:09.732Z,72.36
2023-04-03T21:39:39.007Z,72.39
2023-04-03T21:42:08.760Z,71.70
2023-04-03T21:44:38.922Z,71.98
2023-04-03T21:47:08.393Z,73.16
2023-04-03T21:49:37.716Z,74.84
2023-04-03T21:52:07.408Z,74.85
2023-04-03T21:54:36.915Z,76.59
2023-04-03T21:57:06.179Z,75.90
2023-04-03T21:59:36.652Z,77.31
2023-04-03T22:02:06.258Z,77.41
2023-04-03T22:04:35.637Z,77.57
2023-04-03T22:07:05.173Z,77.04
2023-04-03T22:09:34.453Z,77.37
2023-04-03T22:12:04.884Z,75.89
2023-04-03T22:14:35.316Z,75.16
2023-04-03T22:17:05.815Z,75.39
2023-04-03T22:19:35.634Z,75.35
2023-04-03T22:22:04.885Z,75.16
2023-04-03T22:24:34.293Z,76.44
2023-04-03T22:27:03.551Z,76.42
2023-04-03T22:29:33.194Z,76.24
2023-04-03T22:32:02.584Z,76.07
2023-04-03T22:34:32.481Z,75.41
2023-04-03T22:37:01.975Z,74.76
2023-04-03T22:39:31.719Z,75.58
2023-04-03T22:42:01.685Z,75.11
2023-04-03T22:44:36.274Z,74.49
2023-04-03T22:47:03.100Z,74.28
2023-04-03T22:49:33.284Z,74.23
2023-04-03T22:52:02.605Z,74.23
2023-04-03T22:54:31.861Z,74.73
2023-04-03T22:57:01.139Z,75.34
2023-04-03T22:59:30.416Z,75.71
2023-04-03T23:01:59.681Z,75.53
2023-04-03T23:04:29.693Z,75.86
2023-04-03T23:07:00.252Z,77.69
2023-04-03T23:09:29.690Z,78.11
2023-04-03T23:11:59.536Z,78.77
2023-04-03T23:14:28.975Z,79.17
2023-04-03T23:16:59.909Z,79.45
2023-04-03T23:19:29.245Z,79.42
2023-04-03T23:21:58.783Z,78.29
2023-04-03T23:24:28.591Z,78.40
2023-04-03T23:26:58.017Z,78.78
2023-04-03T23:29:28.053Z,79.53
2023-04-03T23:31:57.348Z,79.62
2023-04-03T23:34:26.919Z,79.05
2023-04-03T23:36:56.217Z,80.43
2023-04-03T23:39:25.761Z,81.12
2023-04-03T23:41:55.428Z,82.19
2023-04-03T23:44:24.671Z,83.22
2023-04-03T23:46:55.702Z,82.89
2023-04-03T23:49:24.965Z,84.26
2023-04-03T23:51:54.609Z,83.09
2023-04-03T23:54:24.428Z,83.54
2023-04-03T23:56:53.830Z,83.72
2023-04-03T23:59:23.346Z,83.93
